MBJ weather

Sangster International Airport
Montego Bay, Saint James, Jamaica

Public forecast

Using degrees Celsius for public forecast. Weather courtesy of forecast.io.

METAR (pilot weather report)

Retrieved 2019/03/19 14:00 UTC (31 minutes ago):

MKJS 191400Z 29005KT 9999 FEW022 27/21 Q1016

TAF (pilot weather forecast)

Retrieved 2019/03/19 12:22 UTC (2 hours ago):

TAF COR MKJS 191115Z 1912/2012 14005KT 9999 FEW024 BECMG 1914/1916 06015KT SCT022 PROB40 TEMPO 1919/1923 SHRA SCT018 SCT030 BECMG 2001/2003 13005KT FEW022 SCT032